Terminal Aerodrome Forecast
Issued by NWS

Home | Current Version | Previous Version | Text Only | Print | Product List | Glossary On
Versions: 1 2 3 4 5 6 7 8 9 10 11 12 13 14 15 16 17 18 19 20 21 22 23
000
FTUS43 KGLD 250520
TAFMCK
TAF
KMCK 250520Z 2506/2606 25009KT P6SM FEW250
     FM250900 29012KT P6SM FEW100 SCT200
     FM251300 30010G16KT P6SM SCT050 BKN100
     FM251700 33020G30KT P6SM VCSH BKN050
     FM252000 36020G30KT P6SM VCSH BKN035=

USA.gov is the U.S. government's official web portal to all federal, state and local government web resources and services.